Time;durP1;ratioP1;P1;durP2;ratioP2;P2;SDS_P1;SDS_P2;PMS_P1;PMS_P2;Temp;Humidity;BMP_temperature;BMP_pressure;BME280_temperature;BME280_humidity;BME280_pressure;Samples;Min_cycle;Max_cycle;Signal;HPM_P1;HPM_P2
2024/02/15 00:03:15;;;;;;;13.10;5.72;;;12.00;99.90;;;;;;8451416;28;20044;-74
2024/02/15 00:07:17;;;;;;;9.18;5.40;;;12.00;99.90;;;;;;8455390;28;20452;-74
2024/02/15 00:11:19;;;;;;;9.80;5.57;;;12.00;99.90;;;;;;8453954;28;20046;-74
2024/02/15 00:15:21;;;;;;;10.82;5.63;;;12.00;99.90;;;;;;8447628;28;20043;-74
2024/02/15 00:19:23;;;;;;;10.15;5.05;;;11.90;99.90;;;;;;8450806;28;20055;-74
2024/02/15 00:23:25;;;;;;;8.57;4.28;;;11.90;99.90;;;;;;8453353;28;20054;-74
2024/02/15 00:27:27;;;;;;;7.53;4.43;;;11.90;99.90;;;;;;8454525;28;20055;-74
2024/02/15 00:31:29;;;;;;;10.07;5.28;;;11.90;99.90;;;;;;8444087;28;20092;-74
2024/02/15 00:35:31;;;;;;;10.85;5.30;;;11.90;99.90;;;;;;8477165;27;20095;-74
2024/02/15 00:39:34;;;;;;;9.43;4.75;;;11.90;99.90;;;;;;8445389;28;20075;-74
2024/02/15 00:43:36;;;;;;;10.60;4.53;;;11.90;99.90;;;;;;8448969;27;20058;-74
2024/02/15 00:47:38;;;;;;;11.02;4.10;;;11.90;99.90;;;;;;8448544;28;20602;-74
2024/02/15 00:51:40;;;;;;;9.35;4.63;;;11.90;99.90;;;;;;8448218;28;20044;-74
2024/02/15 00:55:42;;;;;;;9.32;4.90;;;11.90;99.90;;;;;;8449251;28;20380;-74
2024/02/15 00:59:44;;;;;;;11.38;5.30;;;12.00;99.90;;;;;;8452380;28;20052;-73
2024/02/15 01:03:46;;;;;;;9.50;5.43;;;11.90;99.90;;;;;;8447923;28;20483;-74
2024/02/15 01:07:55;;;;;;;10.07;5.63;;;12.00;99.90;;;;;;8447542;28;20082;-74
2024/02/15 01:11:57;;;;;;;9.25;5.60;;;12.00;99.90;;;;;;8454489;27;20501;-74
2024/02/15 01:16:01;;;;;;;11.57;6.80;;;12.00;99.90;;;;;;8442998;28;20145;-74
2024/02/15 01:20:03;;;;;;;13.00;8.05;;;11.90;99.90;;;;;;8450228;28;20555;-74
2024/02/15 01:24:06;;;;;;;11.98;6.57;;;12.00;99.90;;;;;;8444603;27;20092;-74
2024/02/15 01:28:08;;;;;;;17.10;9.68;;;12.00;99.90;;;;;;8453290;28;20101;-74
2024/02/15 01:32:10;;;;;;;15.60;9.05;;;12.00;99.90;;;;;;8448213;28;20040;-74
2024/02/15 01:36:15;;;;;;;18.65;11.20;;;12.00;99.90;;;;;;8448666;28;20044;-74
2024/02/15 01:40:17;;;;;;;18.00;10.50;;;12.00;99.90;;;;;;8449069;28;20121;-73
2024/02/15 01:44:20;;;;;;;18.98;9.95;;;12.00;99.90;;;;;;8446371;28;20047;-74
2024/02/15 01:48:22;;;;;;;17.70;9.20;;;12.00;99.90;;;;;;8449519;28;21111;-74
2024/02/15 01:52:24;;;;;;;17.90;10.40;;;12.00;99.90;;;;;;8453644;28;20123;-74
2024/02/15 01:56:27;;;;;;;18.77;10.00;;;12.00;99.90;;;;;;8444118;28;20077;-73
2024/02/15 02:00:30;;;;;;;15.18;8.23;;;12.00;99.90;;;;;;8450038;28;20098;-73
2024/02/15 02:04:32;;;;;;;14.40;8.43;;;12.00;99.90;;;;;;8451510;28;20044;-73
2024/02/15 02:08:34;;;;;;;13.55;8.43;;;12.00;99.90;;;;;;8455007;28;20043;-73
2024/02/15 02:12:36;;;;;;;15.55;8.20;;;12.00;99.90;;;;;;8458781;28;20054;-73
2024/02/15 02:16:39;;;;;;;14.35;7.82;;;12.10;99.90;;;;;;8452393;28;20395;-73
2024/02/15 02:20:41;;;;;;;15.05;8.68;;;12.10;99.90;;;;;;8455228;28;20043;-73
2024/02/15 02:25:08;;;;;;;17.08;8.35;;;12.10;99.90;;;;;;8461023;28;20046;-73
2024/02/15 02:29:10;;;;;;;13.63;7.72;;;12.10;99.90;;;;;;8446122;28;20808;-74
2024/02/15 02:33:18;;;;;;;13.13;6.63;;;12.00;99.90;;;;;;8479408;27;20391;-73
2024/02/15 02:37:22;;;;;;;11.07;6.30;;;12.00;99.90;;;;;;8451550;28;20053;-73
2024/02/15 02:41:23;;;;;;;13.63;7.43;;;12.00;99.90;;;;;;8455892;28;20120;-73
2024/02/15 02:45:25;;;;;;;13.07;7.35;;;12.00;99.90;;;;;;8457474;27;20048;-73
2024/02/15 02:49:27;;;;;;;12.10;7.20;;;11.90;99.90;;;;;;8449827;28;20054;-73
2024/02/15 02:53:29;;;;;;;13.60;7.07;;;11.90;99.90;;;;;;8455205;27;20119;-73
2024/02/15 02:57:31;;;;;;;14.55;6.80;;;11.90;99.90;;;;;;8448473;28;20048;-73
2024/02/15 03:01:33;;;;;;;13.02;7.22;;;11.90;99.90;;;;;;8451872;27;20504;-73
2024/02/15 03:05:35;;;;;;;14.98;7.40;;;11.90;99.90;;;;;;8453343;28;20041;-73
2024/02/15 03:09:37;;;;;;;14.10;6.95;;;11.90;99.90;;;;;;8455836;28;20048;-73
2024/02/15 03:13:39;;;;;;;15.90;6.80;;;11.90;99.90;;;;;;8454146;28;20447;-73
2024/02/15 03:17:42;;;;;;;16.35;7.22;;;12.00;99.90;;;;;;8448936;28;20042;-73
2024/02/15 03:21:46;;;;;;;13.68;6.22;;;12.00;99.90;;;;;;8454050;27;20043;-73
2024/02/15 03:25:49;;;;;;;13.95;6.22;;;12.00;99.90;;;;;;8453485;28;20054;-73
2024/02/15 03:29:52;;;;;;;14.23;6.57;;;12.00;99.90;;;;;;8448357;28;20380;-73
2024/02/15 03:33:54;;;;;;;12.75;6.47;;;12.00;99.90;;;;;;8453340;28;20056;-73
2024/02/15 03:37:57;;;;;;;12.07;5.43;;;12.00;99.90;;;;;;8448999;28;20050;-73
2024/02/15 03:41:59;;;;;;;11.90;5.85;;;12.00;99.90;;;;;;8457220;28;20043;-73
2024/02/15 03:46:01;;;;;;;11.27;5.97;;;12.00;99.90;;;;;;8454822;28;20083;-73
2024/02/15 03:50:04;;;;;;;12.80;5.82;;;12.00;99.90;;;;;;8452994;28;20039;-73
2024/02/15 03:54:12;;;;;;;12.48;5.72;;;12.00;99.90;;;;;;8475139;27;20100;-73
2024/02/15 03:58:14;;;;;;;13.73;5.40;;;12.00;99.90;;;;;;8450749;28;20044;-73
2024/02/15 04:02:16;;;;;;;11.93;5.15;;;12.10;99.90;;;;;;8456687;28;20047;-72
2024/02/15 04:06:18;;;;;;;13.90;5.70;;;12.10;99.90;;;;;;8449996;28;20490;-72
2024/02/15 04:10:20;;;;;;;11.95;5.32;;;12.10;99.90;;;;;;8451931;28;20056;-72
2024/02/15 04:14:23;;;;;;;9.57;5.13;;;12.10;99.90;;;;;;8448548;28;20052;-72
2024/02/15 04:18:24;;;;;;;12.18;6.15;;;12.10;99.90;;;;;;8447480;27;20052;-72
2024/02/15 04:22:26;;;;;;;10.93;5.85;;;12.10;99.90;;;;;;8452074;28;20079;-72
2024/02/15 04:26:30;;;;;;;12.65;5.30;;;12.10;99.90;;;;;;8450368;28;20051;-72
2024/02/15 04:30:32;;;;;;;11.75;6.22;;;12.10;99.90;;;;;;8444614;28;20373;-72
2024/02/15 04:34:34;;;;;;;11.60;5.40;;;12.10;99.90;;;;;;8454429;28;20456;-72
2024/02/15 04:38:36;;;;;;;9.15;4.93;;;12.10;99.90;;;;;;8451821;28;20066;-73
2024/02/15 04:42:43;;;;;;;11.35;4.63;;;12.10;99.90;;;;;;8454526;28;20099;-72
2024/02/15 04:46:45;;;;;;;10.93;5.30;;;12.10;99.90;;;;;;8447569;27;20043;-72
2024/02/15 04:50:49;;;;;;;12.35;5.95;;;12.00;99.90;;;;;;8472267;27;20563;-72
2024/02/15 04:54:51;;;;;;;9.30;5.15;;;12.00;99.90;;;;;;8446097;28;20043;-72
2024/02/15 04:58:53;;;;;;;12.98;6.22;;;12.00;99.90;;;;;;8435523;28;20051;-73
2024/02/15 05:03:07;;;;;;;9.45;4.97;;;12.00;99.90;;;;;;8441232;28;20063;-72
2024/02/15 05:07:10;;;;;;;14.77;5.85;;;12.00;99.90;;;;;;8449776;28;20044;-72
2024/02/15 05:11:17;;;;;;;11.57;5.80;;;12.00;99.90;;;;;;8451920;28;20383;-73
2024/02/15 05:15:22;;;;;;;12.27;6.28;;;12.00;99.90;;;;;;8447181;28;20181;-72
2024/02/15 05:19:24;;;;;;;11.13;5.90;;;12.00;99.90;;;;;;8452150;28;20054;-73
2024/02/15 05:23:26;;;;;;;11.85;5.45;;;12.00;99.90;;;;;;8450828;28;20505;-73
2024/02/15 05:27:28;;;;;;;12.02;5.72;;;12.00;99.90;;;;;;8452278;28;20509;-73
2024/02/15 05:31:30;;;;;;;14.57;6.22;;;12.00;99.90;;;;;;8452607;28;20078;-73
2024/02/15 05:35:31;;;;;;;12.35;5.97;;;12.00;99.90;;;;;;8451248;28;20044;-73
2024/02/15 05:39:33;;;;;;;14.00;6.78;;;12.00;99.90;;;;;;8454958;28;20102;-72
2024/02/15 05:43:38;;;;;;;10.20;5.65;;;12.00;99.90;;;;;;8451976;28;20108;-73
2024/02/15 05:47:40;;;;;;;8.75;5.60;;;12.00;99.90;;;;;;8451581;28;20096;-72
2024/02/15 05:51:42;;;;;;;10.80;6.15;;;12.00;99.90;;;;;;8451091;28;20051;-72
2024/02/15 05:55:46;;;;;;;9.57;5.82;;;12.00;99.90;;;;;;8477452;27;20174;-72
2024/02/15 05:59:49;;;;;;;12.60;6.05;;;12.00;99.90;;;;;;8438230;28;20441;-72
2024/02/15 06:03:55;;;;;;;14.05;7.28;;;12.00;99.90;;;;;;8440073;28;20072;-73
2024/02/15 06:07:58;;;;;;;13.32;6.30;;;12.00;99.90;;;;;;8465287;27;20075;-72
2024/02/15 06:12:00;;;;;;;12.13;6.90;;;12.00;99.90;;;;;;8422961;28;20574;-72
2024/02/15 06:16:02;;;;;;;8.82;5.50;;;12.00;99.90;;;;;;8423268;28;20044;-72
2024/02/15 06:20:04;;;;;;;11.20;6.10;;;12.00;99.90;;;;;;8419533;28;20880;-72
2024/02/15 06:42:33;;;;;;;11.10;7.45;;;12.00;99.90;;;;;;8422301;28;20056;-72
2024/02/15 06:51:59;;;;;;;12.05;6.60;;;12.00;99.90;;;;;;8419608;28;20112;-72
2024/02/15 06:56:02;;;;;;;12.50;7.63;;;12.00;99.90;;;;;;8454014;27;20128;-72
2024/02/15 07:00:09;;;;;;;11.35;7.75;;;12.00;99.90;;;;;;8427819;28;20047;-72
2024/02/15 07:04:11;;;;;;;9.70;5.97;;;12.00;99.90;;;;;;8430224;27;20052;-72
2024/02/15 07:08:13;;;;;;;9.90;6.25;;;12.00;99.90;;;;;;8437346;28;20058;-72
2024/02/15 07:12:15;;;;;;;9.73;5.97;;;12.00;99.90;;;;;;8440582;27;20047;-73
2024/02/15 07:16:17;;;;;;;9.90;6.05;;;12.00;99.90;;;;;;8441992;28;20109;-72
2024/02/15 07:20:19;;;;;;;11.18;6.10;;;12.00;99.90;;;;;;8434687;28;20071;-72
2024/02/15 07:24:21;;;;;;;9.52;5.22;;;12.00;99.90;;;;;;8440026;28;20051;-72
2024/02/15 07:28:23;;;;;;;8.70;5.18;;;12.10;99.90;;;;;;8427513;28;20091;-73
2024/02/15 07:32:26;;;;;;;10.93;6.18;;;12.10;99.90;;;;;;8425263;28;20113;-73
2024/02/15 07:36:28;;;;;;;9.65;5.65;;;12.00;99.90;;;;;;8427303;28;20047;-74
2024/02/15 07:40:30;;;;;;;8.63;5.40;;;12.00;99.90;;;;;;8433241;28;20487;-74
2024/02/15 07:44:34;;;;;;;9.05;5.25;;;12.00;99.90;;;;;;8426374;27;20044;-74
2024/02/15 07:48:38;;;;;;;8.02;5.10;;;12.10;99.90;;;;;;8436401;28;20043;-73
2024/02/15 07:53:26;;;;;;;8.75;5.10;;;12.10;99.90;;;;;;8429345;28;20043;-74
2024/02/15 07:57:28;;;;;;;6.82;4.18;;;12.00;99.90;;;;;;8424471;28;20616;-73
2024/02/15 08:01:31;;;;;;;9.40;5.47;;;12.00;99.90;;;;;;8423472;28;20063;-74
2024/02/15 08:05:53;;;;;;;10.85;5.90;;;12.00;99.90;;;;;;8436624;28;20032;-74
2024/02/15 08:09:55;;;;;;;7.15;4.75;;;12.00;99.90;;;;;;8425496;28;20292;-73
2024/02/15 08:13:59;;;;;;;11.60;5.72;;;12.00;99.90;;;;;;8428599;28;20051;-73
2024/02/15 08:18:05;;;;;;;7.63;5.00;;;12.10;99.90;;;;;;8423990;28;20464;-74
2024/02/15 08:22:07;;;;;;;8.80;4.88;;;12.00;99.90;;;;;;8420115;28;20101;-73
2024/02/15 08:26:12;;;;;;;7.70;4.43;;;12.10;99.90;;;;;;8424096;27;20529;-73
2024/02/15 08:30:15;;;;;;;8.77;4.68;;;12.10;99.90;;;;;;8429997;27;20044;-73
2024/02/15 08:34:19;;;;;;;7.88;3.97;;;12.10;99.90;;;;;;8435296;28;20482;-73
2024/02/15 08:38:24;;;;;;;9.00;3.92;;;12.00;99.90;;;;;;8430927;27;20071;-74
2024/02/15 08:42:26;;;;;;;7.70;3.40;;;12.00;99.90;;;;;;8427961;28;20039;-74
2024/02/15 08:46:28;;;;;;;5.72;3.00;;;12.10;99.90;;;;;;8436465;28;20035;-73
2024/02/15 08:50:30;;;;;;;5.93;2.80;;;12.10;99.90;;;;;;8430006;28;20044;-74
2024/02/15 08:54:32;;;;;;;6.65;3.28;;;12.10;99.90;;;;;;8436529;28;20047;-73
2024/02/15 08:58:38;;;;;;;7.40;3.15;;;12.10;99.90;;;;;;8432438;27;20046;-74
2024/02/15 09:02:40;;;;;;;7.68;3.28;;;12.20;99.90;;;;;;8433549;28;20042;-74
2024/02/15 09:06:43;;;;;;;6.68;3.38;;;12.20;99.90;;;;;;8423113;28;20463;-73
2024/02/15 09:10:45;;;;;;;8.57;3.45;;;12.20;99.90;;;;;;8426571;28;20480;-73
2024/02/15 09:14:47;;;;;;;6.40;3.17;;;12.20;99.90;;;;;;8434207;28;20365;-73
2024/02/15 09:18:49;;;;;;;5.53;2.75;;;12.20;99.90;;;;;;8424621;28;20044;-73
2024/02/15 09:22:54;;;;;;;6.90;2.72;;;12.20;99.90;;;;;;8430086;28;20058;-73
2024/02/15 09:26:56;;;;;;;8.52;3.22;;;12.20;99.90;;;;;;8421024;28;20774;-72
2024/02/15 09:31:01;;;;;;;6.93;2.95;;;12.30;99.90;;;;;;8417039;28;20453;-73
2024/02/15 09:35:07;;;;;;;6.28;2.70;;;12.30;99.90;;;;;;8422966;28;20056;-73
2024/02/15 09:39:13;;;;;;;6.47;3.22;;;12.30;99.90;;;;;;8421431;28;20064;-73
2024/02/15 09:43:16;;;;;;;8.07;3.17;;;12.40;99.90;;;;;;8426687;28;20061;-73
2024/02/15 09:47:19;;;;;;;5.65;3.30;;;12.40;99.90;;;;;;8427296;28;20048;-73
2024/02/15 09:51:21;;;;;;;6.82;2.83;;;12.40;99.90;;;;;;8425513;28;20054;-73
2024/02/15 09:55:25;;;;;;;6.47;3.17;;;12.40;99.90;;;;;;8420697;28;20150;-73
2024/02/15 09:59:27;;;;;;;6.32;2.75;;;12.40;99.90;;;;;;8416669;28;20453;-73
2024/02/15 10:03:31;;;;;;;6.32;3.47;;;12.40;99.90;;;;;;8423593;28;20040;-73
2024/02/15 10:07:33;;;;;;;8.70;3.70;;;12.40;99.90;;;;;;8416352;28;20544;-73
2024/02/15 10:11:34;;;;;;;8.40;2.72;;;12.40;99.90;;;;;;8420630;28;20047;-72
2024/02/15 10:15:37;;;;;;;8.60;3.53;;;12.40;99.90;;;;;;8430330;28;20056;-73
2024/02/15 10:19:42;;;;;;;10.90;3.47;;;12.50;99.90;;;;;;8417635;28;20407;-72
2024/02/15 10:23:44;;;;;;;6.45;3.50;;;12.50;99.90;;;;;;8431212;28;20055;-73
2024/02/15 10:27:46;;;;;;;6.38;3.08;;;12.50;99.90;;;;;;8424447;28;20479;-73
2024/02/15 10:31:54;;;;;;;7.20;3.15;;;12.60;99.90;;;;;;8427687;28;20146;-73
2024/02/15 10:36:11;;;;;;;9.15;3.72;;;12.60;99.90;;;;;;8422881;28;20047;-73
2024/02/15 10:40:16;;;;;;;8.05;3.13;;;12.70;99.90;;;;;;8424522;28;20067;-73
2024/02/15 10:44:20;;;;;;;6.47;3.13;;;12.70;99.90;;;;;;8436448;28;20387;-73
2024/02/15 10:48:22;;;;;;;6.90;3.03;;;12.80;99.90;;;;;;8423539;28;20059;-72
2024/02/15 10:52:31;;;;;;;6.60;3.08;;;12.80;99.90;;;;;;8431904;28;20059;-73
2024/02/15 10:56:37;;;;;;;7.88;3.90;;;12.80;99.90;;;;;;8419819;27;20036;-72
2024/02/15 11:00:41;;;;;;;8.55;4.38;;;12.90;99.90;;;;;;8438138;28;20052;-72
2024/02/15 11:04:44;;;;;;;10.50;5.10;;;12.90;99.90;;;;;;8419355;28;20044;-73
2024/02/15 11:08:46;;;;;;;9.80;4.57;;;12.90;99.90;;;;;;8424505;28;20086;-72
2024/02/15 11:12:50;;;;;;;15.30;5.25;;;13.00;99.90;;;;;;8427956;28;20048;-72
2024/02/15 11:16:53;;;;;;;7.85;4.80;;;13.00;99.90;;;;;;8425987;28;20047;-72
2024/02/15 11:20:56;;;;;;;9.65;4.60;;;13.00;99.90;;;;;;8426987;28;20043;-72
2024/02/15 11:24:58;;;;;;;7.78;4.55;;;13.10;99.90;;;;;;8433990;28;20052;-72
2024/02/15 11:28:59;;;;;;;11.23;5.05;;;13.10;99.90;;;;;;8420663;28;20068;-73
2024/02/15 11:33:31;;;;;;;9.48;5.10;;;13.20;99.90;;;;;;8428889;28;20036;-72
2024/02/15 11:37:52;;;;;;;9.23;5.15;;;13.20;99.90;;;;;;8431409;28;20048;-73
2024/02/15 11:42:25;;;;;;;8.13;5.05;;;13.30;99.90;;;;;;8435152;28;20048;-72
2024/02/15 11:46:32;;;;;;;9.88;5.50;;;13.30;99.90;;;;;;8420308;27;20080;-72
2024/02/15 11:50:37;;;;;;;8.77;5.13;;;13.30;99.90;;;;;;8423779;28;20043;-73
2024/02/15 11:54:40;;;;;;;9.82;5.32;;;13.40;99.90;;;;;;8427945;28;20044;-73
2024/02/15 11:58:51;;;;;;;9.80;5.22;;;13.40;99.90;;;;;;8420684;28;20067;-73
2024/02/15 12:20:24;;;;;;;9.48;4.53;;;13.90;99.90;;;;;;8427828;27;20415;-73
2024/02/15 12:24:28;;;;;;;9.18;3.85;;;14.00;99.90;;;;;;8422156;28;20135;-73
2024/02/15 12:28:31;;;;;;;8.23;3.85;;;14.00;99.90;;;;;;8433251;27;20052;-72
2024/02/15 12:32:33;;;;;;;8.27;4.43;;;14.00;99.90;;;;;;8433566;28;20069;-72
2024/02/15 12:36:39;;;;;;;9.07;4.03;;;14.20;99.90;;;;;;8427007;28;20131;-72
2024/02/15 12:40:40;;;;;;;6.93;3.90;;;14.40;99.90;;;;;;8434189;28;20529;-72
2024/02/15 12:44:47;;;;;;;8.48;3.80;;;14.60;99.90;;;;;;8436716;28;20534;-72
2024/02/15 12:48:52;;;;;;;8.70;3.95;;;14.80;99.90;;;;;;8421655;28;20050;-72
2024/02/15 12:53:05;;;;;;;6.90;3.55;;;15.10;99.90;;;;;;8424755;28;20048;-72
2024/02/15 12:57:13;;;;;;;7.82;3.30;;;15.30;99.90;;;;;;8422740;28;20043;-72
2024/02/15 13:01:19;;;;;;;9.27;3.25;;;15.60;99.90;;;;;;8423187;28;20052;-72
2024/02/15 13:05:21;;;;;;;7.65;3.65;;;15.80;99.90;;;;;;8423033;27;20518;-72
2024/02/15 13:09:24;;;;;;;9.90;3.50;;;15.80;99.90;;;;;;8421665;27;20051;-72
2024/02/15 13:13:27;;;;;;;5.78;2.63;;;15.80;99.90;;;;;;8419344;28;20651;-72
2024/02/15 13:17:29;;;;;;;8.55;3.38;;;15.90;99.90;;;;;;8420927;28;20491;-73
2024/02/15 13:21:31;;;;;;;7.25;3.28;;;16.00;99.90;;;;;;8424462;28;20083;-73
2024/02/15 13:25:33;;;;;;;6.35;3.28;;;16.00;99.90;;;;;;8422717;28;20101;-73
2024/02/15 13:29:35;;;;;;;6.50;3.10;;;16.00;99.90;;;;;;8430359;28;20055;-73
2024/02/15 13:33:36;;;;;;;6.55;3.65;;;16.00;99.90;;;;;;8430477;28;20419;-73
2024/02/15 13:37:42;;;;;;;6.88;2.83;;;16.00;99.90;;;;;;8428919;28;20090;-73
2024/02/15 13:41:44;;;;;;;6.00;2.67;;;16.00;99.90;;;;;;8436519;28;20445;-73
2024/02/15 13:45:45;;;;;;;7.60;2.90;;;16.10;99.90;;;;;;8430978;28;20047;-73
2024/02/15 13:49:47;;;;;;;6.40;2.92;;;16.10;99.90;;;;;;8424372;28;20097;-73
2024/02/15 13:53:49;;;;;;;6.07;2.80;;;16.20;99.90;;;;;;8421747;28;20044;-73
2024/02/15 13:57:52;;;;;;;8.90;3.22;;;16.20;99.90;;;;;;8432248;28;20047;-72
2024/02/15 14:01:53;;;;;;;6.50;2.88;;;16.10;99.90;;;;;;8425213;28;20071;-73
2024/02/15 14:05:55;;;;;;;6.93;2.90;;;16.10;99.90;;;;;;8437418;28;20040;-73
2024/02/15 14:09:57;;;;;;;5.80;2.72;;;16.10;99.90;;;;;;8426891;27;20044;-72
2024/02/15 14:14:05;;;;;;;9.13;3.05;;;16.20;99.90;;;;;;8435272;28;20048;-73
2024/02/15 14:18:13;;;;;;;6.90;2.92;;;16.30;99.90;;;;;;8439920;28;20054;-73
2024/02/15 14:22:17;;;;;;;7.25;3.20;;;16.40;99.90;;;;;;8428562;28;20086;-73
2024/02/15 14:26:18;;;;;;;5.50;3.00;;;16.40;99.90;;;;;;8427611;28;20079;-72
2024/02/15 14:34:41;;;;;;;5.78;2.85;;;16.30;99.90;;;;;;8424511;28;20063;-72
2024/02/15 14:38:46;;;;;;;4.45;2.50;;;16.20;99.90;;;;;;8426660;28;20398;-72
2024/02/15 14:42:48;;;;;;;5.40;2.58;;;16.20;99.90;;;;;;8425026;28;20109;-73
2024/02/15 14:46:57;;;;;;;5.88;2.42;;;16.20;99.90;;;;;;8424079;28;20109;-72
2024/02/15 14:51:00;;;;;;;5.68;2.13;;;16.10;99.90;;;;;;8429594;27;20041;-73
2024/02/15 14:55:07;;;;;;;8.02;2.80;;;16.10;99.90;;;;;;8430732;27;20181;-73
2024/02/15 14:59:10;;;;;;;4.90;2.50;;;16.00;99.90;;;;;;8424563;27;20117;-73
2024/02/15 15:03:13;;;;;;;5.18;2.30;;;15.90;99.90;;;;;;8438615;28;20138;-72
2024/02/15 15:15:56;;;;;;;4.93;2.40;;;15.80;99.90;;;;;;8422851;28;20055;-72
2024/02/15 15:19:58;;;;;;;7.97;2.78;;;15.80;99.90;;;;;;8422382;28;20463;-72
2024/02/15 15:24:00;;;;;;;5.57;2.17;;;15.70;99.90;;;;;;8425986;28;20483;-72
2024/02/15 15:28:04;;;;;;;6.30;2.60;;;15.70;99.90;;;;;;8425076;28;20048;-73
2024/02/15 15:32:08;;;;;;;5.13;2.20;;;15.60;99.90;;;;;;8430928;28;20478;-72
2024/02/15 15:36:10;;;;;;;7.85;2.20;;;15.60;99.90;;;;;;8419162;28;20173;-72
2024/02/15 15:40:13;;;;;;;4.72;2.33;;;15.60;99.90;;;;;;8425502;28;20091;-72
2024/02/15 15:44:15;;;;;;;6.38;2.60;;;15.60;99.90;;;;;;8422633;28;20048;-72
2024/02/15 15:48:17;;;;;;;5.60;2.75;;;15.50;99.90;;;;;;8429493;28;20048;-72
2024/02/15 15:52:20;;;;;;;4.20;2.38;;;15.50;99.90;;;;;;8416303;28;20143;-72
2024/02/15 15:56:21;;;;;;;5.70;2.60;;;15.50;99.90;;;;;;8420662;28;20056;-72
2024/02/15 16:00:24;;;;;;;5.82;2.40;;;15.40;99.90;;;;;;8414844;28;20044;-72
2024/02/15 16:04:26;;;;;;;7.35;3.00;;;15.30;99.90;;;;;;8418656;28;20534;-72
2024/02/15 16:08:28;;;;;;;6.15;2.72;;;15.30;99.90;;;;;;8417237;28;20083;-72
2024/02/15 16:12:31;;;;;;;5.68;3.00;;;15.20;99.90;;;;;;8418018;28;20048;-72
2024/02/15 16:16:33;;;;;;;6.15;3.10;;;15.20;99.90;;;;;;8420792;28;20044;-72
2024/02/15 16:20:35;;;;;;;6.70;3.00;;;15.20;99.90;;;;;;8430000;28;20105;-72
2024/02/15 16:24:40;;;;;;;5.25;2.80;;;15.10;99.90;;;;;;8420367;28;20592;-72
2024/02/15 16:28:42;;;;;;;5.40;2.42;;;15.10;99.90;;;;;;8418043;28;20059;-72
2024/02/15 16:32:46;;;;;;;5.65;2.78;;;15.00;99.90;;;;;;8434501;27;20039;-72
2024/02/15 16:36:49;;;;;;;5.13;2.35;;;15.00;99.90;;;;;;8423288;28;20058;-72
2024/02/15 16:40:51;;;;;;;3.95;2.28;;;14.90;99.90;;;;;;8433226;28;20048;-73
2024/02/15 16:44:53;;;;;;;5.75;2.40;;;14.90;99.90;;;;;;8453247;27;20557;-72
2024/02/15 16:48:58;;;;;;;5.03;2.22;;;14.80;99.90;;;;;;8434198;27;20157;-72
2024/02/15 17:03:45;;;;;;;6.32;2.90;;;14.60;99.90;;;;;;8424639;28;20039;-73
2024/02/15 17:07:47;;;;;;;6.47;3.22;;;14.50;99.90;;;;;;8432595;28;20047;-72
2024/02/15 17:11:49;;;;;;;5.18;3.00;;;14.50;99.90;;;;;;8424752;28;20043;-73
2024/02/15 17:15:50;;;;;;;6.38;3.08;;;14.40;99.90;;;;;;8434595;28;20376;-73
2024/02/15 17:19:52;;;;;;;6.43;3.13;;;14.40;99.90;;;;;;8421436;28;20051;-73
2024/02/15 17:23:55;;;;;;;6.72;3.22;;;14.30;99.90;;;;;;8423425;28;20051;-73
2024/02/15 17:27:58;;;;;;;6.85;2.92;;;14.30;99.90;;;;;;8423206;28;20048;-73
2024/02/15 17:32:01;;;;;;;7.22;3.45;;;14.20;99.90;;;;;;8429820;28;20539;-73
2024/02/15 17:41:09;;;;;;;8.23;3.45;;;14.10;99.90;;;;;;8434419;28;20533;-73
2024/02/15 17:45:11;;;;;;;7.07;2.80;;;14.10;99.90;;;;;;8433756;28;20060;-73
2024/02/15 17:49:14;;;;;;;5.25;3.17;;;14.00;99.90;;;;;;8422572;28;20040;-73
2024/02/15 17:53:16;;;;;;;7.63;2.95;;;14.00;99.90;;;;;;8427758;28;20047;-73
2024/02/15 17:57:17;;;;;;;6.28;3.13;;;14.00;99.90;;;;;;8428506;28;20044;-73
2024/02/15 18:01:21;;;;;;;7.55;3.05;;;13.90;99.90;;;;;;8435291;28;20051;-73
2024/02/15 18:05:23;;;;;;;6.43;2.95;;;13.80;99.90;;;;;;8426576;28;20090;-73
2024/02/15 18:09:25;;;;;;;5.93;2.85;;;13.80;99.90;;;;;;8422561;28;20048;-73
2024/02/15 18:13:28;;;;;;;7.68;3.33;;;13.80;99.90;;;;;;8452103;27;20077;-73
2024/02/15 18:17:29;;;;;;;5.15;3.00;;;13.70;99.90;;;;;;8423637;28;20086;-73
2024/02/15 18:21:32;;;;;;;5.10;2.83;;;13.60;99.90;;;;;;8431489;28;20146;-73
2024/02/15 18:25:35;;;;;;;6.38;3.20;;;13.60;99.90;;;;;;8421992;28;20266;-73
2024/02/15 18:29:37;;;;;;;7.38;3.53;;;13.50;99.90;;;;;;8418007;28;20040;-73
2024/02/15 18:33:41;;;;;;;6.07;2.83;;;13.50;99.90;;;;;;8426770;27;20502;-73
2024/02/15 18:37:43;;;;;;;6.03;2.70;;;13.40;99.90;;;;;;8423479;28;20048;-73
2024/02/15 18:41:47;;;;;;;6.93;3.25;;;13.40;99.90;;;;;;8424190;28;20040;-73
2024/02/15 18:45:49;;;;;;;4.95;2.72;;;13.40;99.90;;;;;;8426838;28;20081;-73
2024/02/15 18:49:50;;;;;;;8.48;3.15;;;13.30;99.90;;;;;;8424013;28;20051;-73
2024/02/15 18:54:09;;;;;;;6.68;3.28;;;13.40;99.90;;;;;;8426559;27;20059;-73
2024/02/15 18:58:11;;;;;;;6.82;3.50;;;13.30;99.90;;;;;;8421856;27;20044;-73
2024/02/15 19:02:14;;;;;;;6.22;2.67;;;13.30;99.90;;;;;;8425456;27;20079;-73
2024/02/15 19:06:18;;;;;;;6.85;2.58;;;13.30;99.90;;;;;;8427179;27;20072;-73
2024/02/15 19:10:21;;;;;;;5.88;2.70;;;13.30;99.90;;;;;;8425412;27;20488;-73
2024/02/15 19:14:23;;;;;;;5.78;2.83;;;13.30;99.90;;;;;;8429271;27;20043;-73
2024/02/15 19:18:27;;;;;;;7.78;2.80;;;13.30;99.90;;;;;;8430869;28;20140;-74
2024/02/15 19:22:29;;;;;;;6.10;3.30;;;13.20;99.90;;;;;;8439632;28;20691;-73
2024/02/15 19:26:31;;;;;;;6.28;3.10;;;13.20;99.90;;;;;;8463260;27;20129;-73
2024/02/15 19:30:33;;;;;;;5.35;3.05;;;13.20;99.90;;;;;;8421582;28;20044;-73
2024/02/15 19:34:35;;;;;;;6.90;3.33;;;13.10;99.90;;;;;;8422117;28;20040;-73
2024/02/15 19:38:37;;;;;;;7.70;3.42;;;13.10;99.90;;;;;;8433375;28;20132;-73
2024/02/15 19:42:39;;;;;;;5.68;3.30;;;13.00;99.90;;;;;;8426515;28;20101;-73
2024/02/15 19:46:42;;;;;;;6.68;3.38;;;13.00;99.90;;;;;;8420364;28;20048;-73
2024/02/15 19:50:44;;;;;;;5.93;3.50;;;13.00;99.90;;;;;;8425445;27;20548;-73
2024/02/15 19:54:46;;;;;;;7.43;2.75;;;12.90;99.90;;;;;;8425685;27;20047;-73
2024/02/15 19:58:48;;;;;;;7.40;3.50;;;12.90;99.90;;;;;;8425570;28;20435;-73
2024/02/15 20:02:52;;;;;;;6.47;3.65;;;12.90;99.90;;;;;;8426022;27;20105;-73
2024/02/15 20:06:54;;;;;;;6.28;3.63;;;12.90;99.90;;;;;;8425473;28;20082;-73
2024/02/15 20:10:56;;;;;;;6.43;3.50;;;12.90;99.90;;;;;;8422915;28;20055;-73
2024/02/15 20:14:58;;;;;;;9.90;3.88;;;12.80;99.90;;;;;;8421524;28;20456;-73
2024/02/15 20:19:02;;;;;;;7.47;3.80;;;12.80;99.90;;;;;;8424513;27;20098;-73
2024/02/15 20:23:04;;;;;;;6.95;3.80;;;12.80;99.90;;;;;;8425379;27;20048;-73
2024/02/15 20:27:06;;;;;;;6.95;3.67;;;12.80;99.90;;;;;;8426671;28;20054;-73
2024/02/15 20:31:08;;;;;;;6.22;3.40;;;12.80;99.90;;;;;;8422642;28;20044;-73
2024/02/15 20:35:10;;;;;;;7.65;3.42;;;12.80;99.90;;;;;;8425799;28;20517;-73
2024/02/15 20:39:12;;;;;;;6.30;3.47;;;12.80;99.90;;;;;;8426754;28;20083;-73
2024/02/15 20:43:14;;;;;;;5.35;3.50;;;12.80;99.90;;;;;;8424386;28;20051;-73
2024/02/15 20:47:18;;;;;;;6.45;3.40;;;12.80;99.90;;;;;;8423559;28;20036;-73
2024/02/15 20:51:22;;;;;;;6.63;3.58;;;12.80;99.90;;;;;;8432647;27;20097;-73
2024/02/15 20:55:24;;;;;;;7.10;3.50;;;12.80;99.90;;;;;;8431962;28;20054;-74
2024/02/15 20:59:26;;;;;;;5.97;3.00;;;12.80;99.90;;;;;;8428419;28;20048;-73
2024/02/15 21:03:29;;;;;;;8.82;3.40;;;12.80;99.90;;;;;;8422515;28;20051;-74
2024/02/15 21:07:33;;;;;;;6.97;3.28;;;12.70;99.90;;;;;;8423376;28;20055;-73
2024/02/15 21:11:35;;;;;;;6.93;3.58;;;12.70;99.90;;;;;;8428741;28;20043;-73
2024/02/15 21:15:37;;;;;;;8.68;3.47;;;12.70;99.90;;;;;;8423932;28;20051;-73
2024/02/15 21:19:39;;;;;;;5.63;3.42;;;12.70;99.90;;;;;;8422210;28;20113;-73
2024/02/15 21:23:42;;;;;;;7.20;3.75;;;12.70;99.90;;;;;;8433472;28;20055;-73
2024/02/15 21:27:43;;;;;;;6.28;3.28;;;12.70;99.90;;;;;;8424798;28;20507;-73
2024/02/15 21:31:50;;;;;;;6.50;3.38;;;12.60;99.90;;;;;;8439937;27;20403;-73
2024/02/15 21:35:52;;;;;;;5.80;2.80;;;12.60;99.90;;;;;;8427201;28;20036;-73
2024/02/15 21:39:54;;;;;;;6.20;3.67;;;12.60;99.90;;;;;;8423131;28;20427;-73
2024/02/15 21:43:56;;;;;;;7.63;3.30;;;12.50;99.90;;;;;;8421835;28;20044;-73
2024/02/15 21:47:58;;;;;;;5.15;2.80;;;12.50;99.90;;;;;;8423214;28;20506;-73
2024/02/15 21:52:37;;;;;;;6.32;3.47;;;12.50;99.90;;;;;;8421817;28;20127;-73
2024/02/15 21:56:39;;;;;;;7.13;3.90;;;12.50;99.90;;;;;;8431534;28;20090;-74
2024/02/15 22:00:41;;;;;;;8.90;4.40;;;12.50;99.90;;;;;;8420505;28;20047;-73
2024/02/15 22:04:43;;;;;;;6.80;2.90;;;12.50;99.90;;;;;;8445728;28;20550;-73
2024/02/15 22:08:45;;;;;;;6.15;3.30;;;12.40;99.90;;;;;;8450887;28;20463;-73
2024/02/15 22:12:47;;;;;;;5.15;3.05;;;12.50;99.90;;;;;;8449644;28;20122;-73